createdAt,value
2023-04-27T00:02:51.758Z,41.30
2023-04-27T00:05:53.733Z,40.48
2023-04-27T00:08:55.725Z,42.28
2023-04-27T00:11:57.585Z,40.04
2023-04-27T00:14:59.812Z,40.31
2023-04-27T00:18:02.172Z,39.63
2023-04-27T00:21:04.176Z,40.84
2023-04-27T00:24:06.168Z,39.88
2023-04-27T00:27:08.305Z,41.86
2023-04-27T00:30:10.365Z,40.90
2023-04-27T00:33:12.250Z,40.69
2023-04-27T00:36:14.072Z,43.30
2023-04-27T00:39:16.857Z,42.71
2023-04-27T00:42:19.760Z,43.73
2023-04-27T00:45:21.644Z,43.73
2023-04-27T00:48:23.514Z,43.15
2023-04-27T00:51:30.310Z,42.17
2023-04-27T00:54:32.196Z,43.27
2023-04-27T00:57:34.351Z,43.11
2023-04-27T01:00:36.643Z,43.96
2023-04-27T01:03:38.818Z,41.54
2023-04-27T01:06:40.751Z,41.25
2023-04-27T01:09:42.616Z,43.45
2023-04-27T01:12:44.539Z,44.55
2023-04-27T01:15:46.392Z,43.19
2023-04-27T01:18:48.290Z,42.62
2023-04-27T01:21:50.148Z,43.52
2023-04-27T01:24:52.123Z,43.29
2023-04-27T01:27:54.483Z,43.54
2023-04-27T01:30:56.488Z,41.53
2023-04-27T01:33:58.355Z,43.18
2023-04-27T01:37:00.227Z,43.23
2023-04-27T01:40:02.072Z,43.83
2023-04-27T01:43:04.072Z,44.24
2023-04-27T01:46:07.084Z,44.27
2023-04-27T01:49:09.032Z,43.54
2023-04-27T01:52:10.937Z,44.02
2023-04-27T01:55:12.761Z,43.41
2023-04-27T01:58:14.644Z,41.84
2023-04-27T02:01:16.594Z,42.67
2023-04-27T02:04:18.567Z,44.99
2023-04-27T02:07:20.791Z,45.03
2023-04-27T02:10:22.630Z,46.19
2023-04-27T02:13:24.489Z,46.51
2023-04-27T02:16:26.297Z,46.71
2023-04-27T02:19:28.122Z,47.32
2023-04-27T02:22:29.983Z,46.49
2023-04-27T02:25:31.857Z,45.49
2023-04-27T02:28:33.826Z,46.12
2023-04-27T02:31:36.163Z,47.99
2023-04-27T02:34:38.087Z,47.28
2023-04-27T02:37:40.053Z,47.46
2023-04-27T02:40:42.119Z,47.20
2023-04-27T02:43:43.978Z,46.57
2023-04-27T02:46:45.930Z,45.78
2023-04-27T02:49:47.940Z,46.03
2023-04-27T02:52:49.835Z,46.46
2023-04-27T02:55:52.007Z,47.33
2023-04-27T02:58:53.859Z,48.13
2023-04-27T03:01:55.744Z,46.91
2023-04-27T03:04:59.269Z,47.63
2023-04-27T03:08:01.501Z,48.40
2023-04-27T03:11:04.029Z,48.39
2023-04-27T03:14:06.331Z,47.10
2023-04-27T03:17:08.224Z,47.66
2023-04-27T03:20:10.514Z,45.96
2023-04-27T03:23:12.387Z,46.33
2023-04-27T03:26:14.429Z,47.51
2023-04-27T03:29:16.272Z,48.32
2023-04-27T03:32:18.140Z,47.88
2023-04-27T03:35:20.070Z,48.43
2023-04-27T03:38:22.016Z,49.97
2023-04-27T03:41:23.903Z,48.81
2023-04-27T03:44:25.860Z,50.95
2023-04-27T03:47:27.722Z,50.92
2023-04-27T03:50:30.316Z,49.42
2023-04-27T03:53:32.362Z,50.41
2023-04-27T03:56:34.685Z,49.06
2023-04-27T03:59:36.699Z,47.90
2023-04-27T04:02:39.234Z,47.74
2023-04-27T04:05:41.382Z,50.36
2023-04-27T04:08:43.313Z,50.85
2023-04-27T04:11:45.158Z,50.80
2023-04-27T04:14:49.048Z,51.04
2023-04-27T04:17:51.319Z,49.17
2023-04-27T04:20:53.417Z,49.93
2023-04-27T04:23:55.388Z,47.45
2023-04-27T04:26:58.628Z,49.59
2023-04-27T04:30:00.634Z,48.62
2023-04-27T04:33:02.840Z,51.36
2023-04-27T04:36:04.946Z,48.98
2023-04-27T04:39:07.147Z,47.83
2023-04-27T04:42:09.071Z,46.44
2023-04-27T04:45:11.090Z,46.41
2023-04-27T04:48:14.445Z,44.78
2023-04-27T04:51:16.791Z,44.79
2023-04-27T04:54:18.694Z,44.02
2023-04-27T04:57:20.900Z,43.55
2023-04-27T05:00:23.449Z,42.60
2023-04-27T05:03:25.729Z,41.11
2023-04-27T05:06:27.800Z,38.14
2023-04-27T05:09:29.966Z,39.09
2023-04-27T05:12:31.980Z,39.03
2023-04-27T05:15:33.909Z,36.57
2023-04-27T05:18:36.371Z,36.57
2023-04-27T05:21:38.623Z,36.48
2023-04-27T05:24:40.837Z,36.95
2023-04-27T05:27:42.755Z,33.98
2023-04-27T05:30:44.792Z,35.97
2023-04-27T05:33:47.154Z,34.34
2023-04-27T05:36:49.040Z,35.41
2023-04-27T05:39:51.080Z,35.10
2023-04-27T05:42:53.117Z,34.41
2023-04-27T05:45:55.079Z,34.17
2023-04-27T05:48:57.028Z,34.44
2023-04-27T05:52:01.302Z,33.50
2023-04-27T05:55:03.820Z,33.79
2023-04-27T05:58:08.974Z,32.72
2023-04-27T06:01:11.425Z,33.11
2023-04-27T06:04:13.393Z,31.60
2023-04-27T06:07:16.343Z,32.40
2023-04-27T06:10:18.441Z,33.91
2023-04-27T06:13:20.570Z,34.22
2023-04-27T06:16:23.043Z,30.02
2023-04-27T06:19:25.557Z,31.48
2023-04-27T06:22:27.848Z,32.49
2023-04-27T06:25:29.883Z,32.81
2023-04-27T06:28:32.036Z,31.45
2023-04-27T06:31:34.333Z,31.79
2023-04-27T06:34:36.443Z,30.98
2023-04-27T06:37:38.393Z,31.57
2023-04-27T06:40:40.463Z,29.95
2023-04-27T06:43:42.517Z,29.64
2023-04-27T06:46:44.579Z,29.34
2023-04-27T06:49:48.469Z,30.21
2023-04-27T06:52:51.513Z,29.28
2023-04-27T06:55:53.556Z,26.44
2023-04-27T06:58:55.775Z,26.13
2023-04-27T07:01:57.871Z,26.22
2023-04-27T07:05:00.399Z,26.56
2023-04-27T07:08:05.348Z,24.31
2023-04-27T07:11:12.423Z,24.13
2023-04-27T07:14:15.167Z,24.02
2023-04-27T07:17:17.283Z,24.81
2023-04-27T07:20:19.608Z,22.98
2023-04-27T07:23:23.738Z,22.86
2023-04-27T07:26:25.721Z,22.55
2023-04-27T07:29:30.514Z,22.93
2023-04-27T07:32:35.446Z,22.11
2023-04-27T07:35:37.629Z,20.05
2023-04-27T07:38:39.646Z,21.81
2023-04-27T07:41:43.915Z,22.66
2023-04-27T07:44:45.826Z,22.90
2023-04-27T07:47:47.935Z,21.99
2023-04-27T07:50:50.232Z,21.33
2023-04-27T07:53:52.246Z,19.92
2023-04-27T07:56:54.533Z,20.00
2023-04-27T07:59:57.122Z,18.54
2023-04-27T08:02:59.404Z,17.94
2023-04-27T08:06:02.231Z,18.84
2023-04-27T08:09:04.544Z,19.39
2023-04-27T08:12:06.882Z,19.57
2023-04-27T08:15:09.113Z,19.04
2023-04-27T08:18:11.040Z,20.37
2023-04-27T08:21:15.497Z,18.73
2023-04-27T08:24:17.440Z,18.21
2023-04-27T08:27:19.330Z,16.96
2023-04-27T08:30:21.847Z,17.71
2023-04-27T08:33:24.539Z,18.64
2023-04-27T08:36:27.895Z,18.44
2023-04-27T08:39:30.183Z,17.99
2023-04-27T08:42:31.975Z,17.24
2023-04-27T08:45:33.879Z,18.33
2023-04-27T08:48:36.338Z,19.42
2023-04-27T08:51:38.624Z,17.35
2023-04-27T08:54:40.939Z,19.43
2023-04-27T08:57:42.840Z,18.99
2023-04-27T09:00:47.133Z,22.29
2023-04-27T09:03:49.433Z,22.06
2023-04-27T09:06:54.189Z,21.73
2023-04-27T09:10:03.060Z,20.35
2023-04-27T09:13:05.002Z,19.63
2023-04-27T09:16:07.116Z,18.71
2023-04-27T09:19:09.109Z,17.41
2023-04-27T09:22:11.566Z,15.60
2023-04-27T09:25:30.064Z,16.24
2023-04-27T09:28:32.493Z,15.34
2023-04-27T09:31:34.849Z,16.46
2023-04-27T09:34:43.812Z,16.71
2023-04-27T09:37:45.803Z,17.36
2023-04-27T09:40:48.425Z,17.89
2023-04-27T09:43:50.315Z,18.00
2023-04-27T09:46:52.226Z,17.94
2023-04-27T09:49:54.361Z,18.82
2023-04-27T09:52:57.251Z,17.70
2023-04-27T09:55:59.086Z,17.04
2023-04-27T09:59:20.236Z,16.83
2023-04-27T10:02:24.753Z,15.86
2023-04-27T10:05:27.630Z,15.90
2023-04-27T10:08:29.616Z,16.18
2023-04-27T10:11:41.607Z,14.45
2023-04-27T10:14:57.149Z,15.12
2023-04-27T10:18:03.776Z,17.74
2023-04-27T10:21:12.157Z,18.25
2023-04-27T10:24:14.098Z,17.36
2023-04-27T10:27:16.941Z,18.80
2023-04-27T10:30:19.515Z,18.65
2023-04-27T10:33:22.502Z,17.90
2023-04-27T10:36:24.464Z,19.09
2023-04-27T10:39:46.955Z,17.06
2023-04-27T10:42:51.011Z,14.67
2023-04-27T10:45:53.179Z,14.46
2023-04-27T10:48:55.427Z,15.54
2023-04-27T10:51:58.293Z,17.20
2023-04-27T10:55:20.538Z,18.22
2023-04-27T10:58:23.442Z,17.20
2023-04-27T11:01:25.915Z,18.18
2023-04-27T11:04:41.547Z,18.95
2023-04-27T11:07:43.590Z,19.52
2023-04-27T11:10:47.204Z,22.07
2023-04-27T11:13:49.710Z,21.77
2023-04-27T11:16:52.208Z,22.11
2023-04-27T11:19:54.288Z,20.02
2023-04-27T11:22:56.230Z,18.73
2023-04-27T11:26:00.672Z,19.70
2023-04-27T11:29:09.893Z,20.46
2023-04-27T11:32:21.551Z,18.95
2023-04-27T11:35:33.756Z,20.22
2023-04-27T11:38:36.217Z,18.56
2023-04-27T11:41:39.351Z,17.48
2023-04-27T11:44:41.638Z,16.06
2023-04-27T11:47:46.656Z,17.34
2023-04-27T11:50:49.261Z,15.28
2023-04-27T11:53:54.405Z,17.72
2023-04-27T11:57:04.660Z,19.00
2023-04-27T12:00:13.327Z,17.06
2023-04-27T12:03:15.447Z,20.69
2023-04-27T12:09:24.071Z,21.19
2023-04-27T12:12:27.396Z,19.17
2023-04-27T12:15:29.343Z,17.98
2023-04-27T12:18:31.325Z,16.12
2023-04-27T12:21:34.090Z,15.82
2023-04-27T12:24:40.048Z,15.56
2023-04-27T12:27:45.078Z,13.90
2023-04-27T12:30:47.183Z,18.25
2023-04-27T12:33:49.549Z,19.48
2023-04-27T12:36:51.771Z,19.88
2023-04-27T12:39:53.817Z,22.15
2023-04-27T12:42:56.055Z,21.97
2023-04-27T12:46:00.137Z,20.74
2023-04-27T12:49:06.540Z,22.14
2023-04-27T12:52:08.786Z,22.80
2023-04-27T12:55:24.829Z,21.88
2023-04-27T12:58:33.482Z,23.47
2023-04-27T13:01:35.543Z,24.29
2023-04-27T13:04:37.871Z,23.82
2023-04-27T13:07:39.979Z,22.39
2023-04-27T13:10:42.470Z,23.33
2023-04-27T13:13:47.061Z,21.87
2023-04-27T13:16:49.306Z,21.66
2023-04-27T13:19:51.306Z,23.62
2023-04-27T13:22:53.561Z,24.70
2023-04-27T13:25:56.683Z,23.75
2023-04-27T13:28:58.987Z,24.48
2023-04-27T13:32:01.293Z,22.87
2023-04-27T13:35:04.129Z,23.69
2023-04-27T13:38:06.381Z,23.55
2023-04-27T13:41:08.815Z,23.75
2023-04-27T13:44:11.894Z,23.13
2023-04-27T13:47:14.172Z,23.05
2023-04-27T13:50:16.381Z,22.46
2023-04-27T13:53:18.398Z,22.85
2023-04-27T13:56:21.051Z,21.88
2023-04-27T13:59:23.135Z,22.31
2023-04-27T14:02:25.377Z,23.92
2023-04-27T14:05:27.490Z,23.53
2023-04-27T14:08:29.366Z,25.30
2023-04-27T14:11:31.405Z,24.16
2023-04-27T14:14:36.460Z,22.80
2023-04-27T14:17:38.599Z,23.45
2023-04-27T14:20:42.212Z,22.39
2023-04-27T14:23:44.199Z,22.94
2023-04-27T14:26:47.604Z,21.93
2023-04-27T14:29:49.976Z,23.16
2023-04-27T14:32:52.154Z,23.06
2023-04-27T14:35:54.261Z,23.81
2023-04-27T14:38:56.131Z,22.94
2023-04-27T14:41:58.115Z,22.88
2023-04-27T14:45:00.238Z,22.93
2023-04-27T14:48:02.357Z,22.53
2023-04-27T14:51:04.381Z,22.47
2023-04-27T14:54:07.887Z,22.72
2023-04-27T14:57:09.833Z,22.58
2023-04-27T15:00:14.630Z,22.87
2023-04-27T15:03:17.107Z,22.72
2023-04-27T15:06:19.546Z,22.48
2023-04-27T15:09:21.496Z,22.21
2023-04-27T15:12:23.387Z,22.66
2023-04-27T15:15:25.254Z,22.26
2023-04-27T15:18:27.234Z,22.54
2023-04-27T15:21:30.061Z,23.35
2023-04-27T15:24:32.066Z,23.74
2023-04-27T15:27:34.031Z,24.17
2023-04-27T15:30:36.110Z,23.43
2023-04-27T15:33:38.000Z,23.94
2023-04-27T15:36:39.925Z,23.23
2023-04-27T15:39:42.237Z,23.16
2023-04-27T15:42:44.233Z,23.51
2023-04-27T15:45:46.189Z,24.09
2023-04-27T15:48:48.107Z,23.48
2023-04-27T15:51:50.490Z,23.38
2023-04-27T15:54:52.453Z,23.17
2023-04-27T15:57:54.554Z,23.80
2023-04-27T16:00:56.430Z,24.45
2023-04-27T16:03:58.462Z,24.21
2023-04-27T16:07:00.407Z,23.30
2023-04-27T16:10:02.787Z,23.20
2023-04-27T16:13:04.752Z,22.90
2023-04-27T16:16:08.384Z,23.32
2023-04-27T16:19:10.409Z,24.50
2023-04-27T16:22:12.327Z,23.49
2023-04-27T16:25:14.200Z,23.58
2023-04-27T16:28:18.012Z,23.91
2023-04-27T16:31:20.226Z,23.72
2023-04-27T16:34:22.281Z,23.38
2023-04-27T16:37:24.110Z,23.29
2023-04-27T16:40:26.115Z,23.12
2023-04-27T16:43:30.054Z,23.48
2023-04-27T16:46:32.027Z,23.29
2023-04-27T16:49:34.164Z,23.82
2023-04-27T16:52:36.227Z,24.54
2023-04-27T16:55:38.163Z,23.63
2023-04-27T16:58:40.974Z,24.29
2023-04-27T17:01:43.093Z,24.54
2023-04-27T17:04:45.177Z,24.95
2023-04-27T17:07:47.369Z,24.83
2023-04-27T17:10:49.280Z,25.55
2023-04-27T17:13:51.197Z,26.33
2023-04-27T17:16:53.085Z,26.23
2023-04-27T17:19:54.967Z,25.80
2023-04-27T17:22:56.920Z,25.27
2023-04-27T17:25:58.790Z,25.27
2023-04-27T17:29:01.635Z,25.29
2023-04-27T17:32:04.350Z,25.63
2023-04-27T17:35:06.531Z,26.38
2023-04-27T17:38:08.569Z,26.55
2023-04-27T17:41:10.534Z,25.76
2023-04-27T17:44:12.908Z,26.09
2023-04-27T17:47:14.883Z,25.85
2023-04-27T17:50:16.769Z,26.50
2023-04-27T17:53:18.606Z,27.57
2023-04-27T17:56:20.523Z,27.14
2023-04-27T17:59:22.365Z,26.23
2023-04-27T18:02:26.840Z,26.56
2023-04-27T18:05:28.799Z,26.81
2023-04-27T18:08:30.682Z,27.67
2023-04-27T18:11:32.637Z,26.82
2023-04-27T18:14:34.550Z,26.68
2023-04-27T18:17:36.644Z,26.61
2023-04-27T18:20:38.575Z,26.57
2023-04-27T18:23:41.424Z,26.67
2023-04-27T18:26:43.311Z,27.15
2023-04-27T18:29:45.544Z,26.79
2023-04-27T18:32:47.469Z,27.58
2023-04-27T18:35:49.612Z,27.74
2023-04-27T18:38:51.505Z,27.12
2023-04-27T18:41:53.512Z,27.22
2023-04-27T18:44:55.391Z,27.21
2023-04-27T18:47:57.342Z,27.75
2023-04-27T18:50:59.232Z,29.56
2023-04-27T18:54:01.296Z,29.78
2023-04-27T18:57:04.348Z,29.62
2023-04-27T19:00:06.560Z,30.00
2023-04-27T19:03:08.718Z,29.30
2023-04-27T19:06:10.767Z,29.81
2023-04-27T19:09:13.071Z,29.27
2023-04-27T19:12:15.275Z,28.74
2023-04-27T19:15:17.190Z,28.10
2023-04-27T19:18:19.178Z,29.04
2023-04-27T19:21:21.104Z,29.71
2023-04-27T19:24:23.011Z,29.13
2023-04-27T19:27:25.052Z,30.07
2023-04-27T19:30:26.956Z,31.76
2023-04-27T19:33:29.385Z,32.83
2023-04-27T19:36:31.902Z,31.93
2023-04-27T19:39:34.453Z,32.25
2023-04-27T19:42:36.533Z,32.61
2023-04-27T19:45:39.119Z,33.00
2023-04-27T19:48:42.539Z,33.04
2023-04-27T19:51:44.720Z,33.40
2023-04-27T19:54:51.111Z,32.18
2023-04-27T19:57:52.987Z,33.29
2023-04-27T20:00:55.497Z,34.26
2023-04-27T20:03:57.781Z,34.36
2023-04-27T20:06:59.780Z,33.74
2023-04-27T20:10:02.905Z,33.87
2023-04-27T20:13:05.005Z,34.91
2023-04-27T20:16:09.093Z,35.21
2023-04-27T20:19:11.067Z,35.05
2023-04-27T20:22:13.308Z,34.55
2023-04-27T20:25:15.774Z,34.53
2023-04-27T20:28:18.051Z,34.61
2023-04-27T20:31:20.187Z,34.57
2023-04-27T20:34:22.101Z,34.20
2023-04-27T20:37:24.883Z,34.25
2023-04-27T20:40:26.794Z,33.65
2023-04-27T20:43:28.855Z,33.31
2023-04-27T20:46:31.179Z,34.99
2023-04-27T20:49:35.369Z,35.57
2023-04-27T20:52:37.864Z,36.45
2023-04-27T20:55:39.827Z,37.05
2023-04-27T20:58:41.856Z,37.88
2023-04-27T21:01:43.955Z,37.47
2023-04-27T21:04:46.099Z,38.62
2023-04-27T21:07:48.099Z,39.31
2023-04-27T21:10:49.995Z,37.06
2023-04-27T21:13:52.268Z,36.58
2023-04-27T21:16:54.204Z,38.40
2023-04-27T21:19:58.046Z,40.20
2023-04-27T21:23:00.658Z,41.10
2023-04-27T21:26:02.625Z,39.82
2023-04-27T21:29:05.943Z,39.75
2023-04-27T21:32:08.543Z,39.32
2023-04-27T21:35:10.516Z,39.51
2023-04-27T21:38:12.386Z,40.21
2023-04-27T21:41:15.654Z,39.08
2023-04-27T21:44:17.742Z,41.04
2023-04-27T21:47:19.734Z,42.79
2023-04-27T21:50:21.608Z,41.02
2023-04-27T21:53:23.534Z,40.89
2023-04-27T21:56:25.855Z,40.58
2023-04-27T21:59:27.724Z,39.48
2023-04-27T22:02:30.806Z,38.68
2023-04-27T22:05:33.547Z,39.36
2023-04-27T22:08:35.819Z,39.74
2023-04-27T22:11:37.972Z,40.91
2023-04-27T22:14:42.926Z,40.86
2023-04-27T22:17:44.957Z,41.64
2023-04-27T22:20:47.415Z,41.26
2023-04-27T22:23:49.322Z,41.59
2023-04-27T22:26:51.127Z,40.78
2023-04-27T22:29:53.024Z,41.03
2023-04-27T22:32:55.373Z,40.77
2023-04-27T22:35:57.433Z,42.15
2023-04-27T22:38:59.464Z,42.00
2023-04-27T22:42:01.452Z,41.68
2023-04-27T22:45:03.395Z,43.36
2023-04-27T22:48:05.392Z,42.06
2023-04-27T22:51:07.986Z,41.06
2023-04-27T22:54:09.887Z,41.12
2023-04-27T22:57:11.971Z,42.39
2023-04-27T23:00:14.047Z,41.50
2023-04-27T23:03:16.306Z,40.99
2023-04-27T23:06:18.506Z,41.55
2023-04-27T23:09:25.417Z,43.87
2023-04-27T23:12:28.871Z,43.26
2023-04-27T23:15:31.147Z,42.63
2023-04-27T23:18:33.429Z,42.86
2023-04-27T23:21:35.392Z,44.23
2023-04-27T23:24:37.428Z,44.91
2023-04-27T23:27:39.283Z,44.83
2023-04-27T23:30:41.368Z,44.18
2023-04-27T23:33:43.269Z,43.22
2023-04-27T23:36:47.408Z,44.05
2023-04-27T23:39:49.318Z,42.72
2023-04-27T23:42:51.929Z,42.95
2023-04-27T23:45:53.869Z,44.95
2023-04-27T23:48:55.836Z,45.40
2023-04-27T23:51:57.729Z,44.82
2023-04-27T23:54:59.575Z,43.79
2023-04-27T23:58:01.408Z,43.80
